Time;durP1;ratioP1;P1;durP2;ratioP2;P2;SDS_P1;SDS_P2;PMS_P1;PMS_P2;Temp;Humidity;BMP_temperature;BMP_pressure;BME280_temperature;BME280_humidity;BME280_pressure;Samples;Min_cycle;Max_cycle;Signal;HPM_P1;HPM_P2
2021/11/23 00:00:37;;;;;;;;;;;;;;;-0.57;100.00;99667.03;1780247;80;21118;-60
2021/11/23 00:03:05;;;;;;;;;;;;;;;-0.68;100.00;99663.52;1767159;79;20134;-61
2021/11/23 00:05:33;;;;;;;;;;;;;;;-0.80;100.00;99668.89;1760122;81;20428;-60
2021/11/23 00:08:00;;;;;;;;;;;;;;;-0.91;100.00;99664.37;1706708;84;20367;-60
2021/11/23 00:10:26;;;;;;;;;;;;;;;-1.00;100.00;99661.97;1721341;82;20427;-60
2021/11/23 00:12:53;;;;;;;;;;;;;;;-1.14;100.00;99659.58;1757356;81;21037;-60
2021/11/23 00:15:20;;;;;;;;;;;;;;;-1.25;100.00;99659.97;1738148;81;20092;-60
2021/11/23 00:17:47;;;;;;;;;;;;;;;-1.36;100.00;99659.89;1742785;81;20400;-60
2021/11/23 00:20:13;;;;;;;;;;;;;;;-1.46;100.00;99661.92;1800709;79;20175;-62
2021/11/23 00:22:41;;;;;;;;;;;;;;;-1.55;100.00;99661.13;1792812;79;20405;-61
2021/11/23 00:25:08;;;;;;;;;;;;;;;-1.61;100.00;99661.84;1783229;78;21071;-62
2021/11/23 00:27:35;;;;;;;;;;;;;;;-1.70;100.00;99666.81;1760402;80;20106;-62
2021/11/23 00:30:02;;;;;;;;;;;;;;;-1.76;100.00;99667.01;1781868;80;20081;-61
2021/11/23 00:32:29;;;;;;;;;;;;;;;-1.81;100.00;99673.28;1819822;79;20473;-61
2021/11/23 00:34:56;;;;;;;;;;;;;;;-1.88;100.00;99667.06;1819940;79;20094;-61
2021/11/23 00:37:23;;;;;;;;;;;;;;;-1.93;100.00;99668.88;1808866;78;21051;-62
2021/11/23 00:39:51;;;;;;;;;;;;;;;-2.00;100.00;99666.60;1808982;78;20083;-61
2021/11/23 00:42:18;;;;;;;;;;;;;;;-2.08;100.00;99670.08;1808511;79;20067;-61
2021/11/23 00:44:45;;;;;;;;;;;;;;;-2.11;100.00;99673.53;1780859;80;20576;-61
2021/11/23 00:47:12;;;;;;;;;;;;;;;-2.17;100.00;99668.45;1781878;80;20072;-61
2021/11/23 00:49:39;;;;;;;;;;;;;;;-2.19;100.00;99677.00;1782215;80;20537;-60
2021/11/23 00:52:06;;;;;;;;;;;;;;;-2.19;100.00;99677.00;1782020;80;20073;-61
2021/11/23 00:54:33;;;;;;;;;;;;;;;-2.25;100.00;99679.81;1781193;79;20482;-61
2021/11/23 00:57:00;;;;;;;;;;;;;;;-2.30;100.00;99681.28;1798473;79;20077;-60
2021/11/23 00:59:26;;;;;;;;;;;;;;;-2.34;100.00;99685.26;1782153;80;20414;-61
2021/11/23 01:01:53;;;;;;;;;;;;;;;-2.38;100.00;99688.70;1796601;79;21496;-61
2021/11/23 01:04:19;;;;;;;;;;;;;;;-2.43;100.00;99683.94;1803777;79;20620;-61
2021/11/23 01:06:49;;;;;;;;;;;;;;;-2.48;100.00;99684.11;1759117;80;20106;-61
2021/11/23 01:09:15;;;;;;;;;;;;;;;-2.55;100.00;99690.52;1748721;81;20143;-61
2021/11/23 01:11:42;;;;;;;;;;;;;;;-2.62;100.00;99693.51;1793611;79;20090;-61
2021/11/23 01:14:09;;;;;;;;;;;;;;;-2.70;100.00;99690.36;1791603;79;21111;-61
2021/11/23 01:16:36;;;;;;;;;;;;;;;-2.72;100.00;99695.45;1794165;79;20131;-61
2021/11/23 01:19:03;;;;;;;;;;;;;;;-2.74;100.00;99694.80;1801280;79;20079;-61
2021/11/23 01:21:29;;;;;;;;;;;;;;;-2.76;100.00;99694.16;1800459;79;20092;-61
2021/11/23 01:23:56;;;;;;;;;;;;;;;-2.85;100.00;99703.33;1789250;80;20088;-61
2021/11/23 01:26:23;;;;;;;;;;;;;;;-2.95;100.00;99703.98;1757569;81;21000;-61
2021/11/23 01:28:51;;;;;;;;;;;;;;;-3.07;100.00;99700.84;1772021;80;20092;-61
2021/11/23 01:31:17;;;;;;;;;;;;;;;-3.15;100.00;99703.47;1795498;79;20086;-61
2021/11/23 01:33:44;;;;;;;;;;;;;;;-3.18;100.00;99710.86;1793839;79;20150;-61
2021/11/23 01:36:10;;;;;;;;;;;;;;;-3.25;100.00;99706.73;1790715;78;20107;-61
2021/11/23 01:38:40;;;;;;;;;;;;;;;-3.34;100.00;99708.50;1789444;79;21135;-61
2021/11/23 01:41:05;;;;;;;;;;;;;;;-3.43;100.00;99700.77;1789471;80;20118;-61
2021/11/23 01:43:32;;;;;;;;;;;;;;;-3.49;100.00;99706.98;1789676;80;20168;-60
2021/11/23 01:45:58;;;;;;;;;;;;;;;-3.54;100.00;99709.77;1789519;80;20170;-60
2021/11/23 01:48:25;;;;;;;;;;;;;;;-3.58;100.00;99707.11;1789304;80;20163;-60
2021/11/23 01:50:52;;;;;;;;;;;;;;;-3.60;100.00;99698.58;1800205;79;21805;-60
2021/11/23 01:53:19;;;;;;;;;;;;;;;-3.60;100.00;99701.20;1801618;79;20106;-60
2021/11/23 01:55:47;;;;;;;;;;;;;;;-3.60;100.00;99700.73;1789914;80;20100;-61
2021/11/23 01:58:14;;;;;;;;;;;;;;;-3.57;100.00;99696.97;1790381;80;20126;-61
2021/11/23 02:00:41;;;;;;;;;;;;;;;-3.57;100.00;99699.59;1757796;81;20115;-61
2021/11/23 02:03:08;;;;;;;;;;;;;;;-3.58;100.00;99697.94;1755855;80;21175;-62
2021/11/23 02:05:35;;;;;;;;;;;;;;;-3.56;100.00;99697.29;1745553;82;20110;-61
2021/11/23 02:08:02;;;;;;;;;;;;;;;-3.61;100.00;99696.45;1736340;82;20394;-62
2021/11/23 02:10:28;;;;;;;;;;;;;;;-3.72;100.00;99700.19;1736075;82;20410;-61
2021/11/23 02:12:55;;;;;;;;;;;;;;;-3.76;100.00;99698.86;1736244;82;20433;-60
2021/11/23 02:15:22;;;;;;;;;;;;;;;-3.74;100.00;99703.45;1736174;82;21099;-60
2021/11/23 02:17:49;;;;;;;;;;;;;;;-3.73;100.00;99704.27;1768534;81;20125;-60
2021/11/23 02:20:19;;;;;;;;;;;;;;;-3.77;100.00;99699.84;1767819;81;20082;-60
2021/11/23 02:22:46;;;;;;;;;;;;;;;-3.79;100.00;99705.73;1749503;80;20111;-60
2021/11/23 02:25:12;;;;;;;;;;;;;;;-3.80;100.00;99702.77;1755491;81;20403;-61
2021/11/23 02:27:42;;;;;;;;;;;;;;;-3.76;100.00;99708.53;1756387;81;21864;-60
2021/11/23 02:30:09;;;;;;;;;;;;;;;-3.76;100.00;99704.59;1755927;80;20085;-60
2021/11/23 02:32:42;;;;;;;;;;;;;;;-3.72;100.00;99709.38;1725576;82;20128;-60
2021/11/23 02:35:10;;;;;;;;;;;;;;;-3.70;100.00;99707.42;1726428;82;20138;-60
2021/11/23 02:37:43;;;;;;;;;;;;;;;-3.66;100.00;99711.35;1739439;81;20085;-60
2021/11/23 02:40:11;;;;;;;;;;;;;;;-3.60;100.00;99714.32;1717854;82;21124;-61
2021/11/23 02:42:37;;;;;;;;;;;;;;;-3.60;100.00;99713.86;1734256;82;20163;-61
2021/11/23 02:45:05;;;;;;;;;;;;;;;-3.57;100.00;99719.27;1743993;82;20174;-61
2021/11/23 02:47:35;;;;;;;;;;;;;;;-3.53;100.00;99720.58;1745378;82;20111;-62
2021/11/23 02:50:03;;;;;;;;;;;;;;;-3.50;100.00;99717.66;1744185;82;20127;-62
2021/11/23 02:52:31;;;;;;;;;;;;;;;-3.42;100.00;99711.61;1719324;82;21119;-62
2021/11/23 02:54:59;;;;;;;;;;;;;;;-3.36;100.00;99706.53;1736148;82;20404;-60
2021/11/23 02:57:30;;;;;;;;;;;;;;;-3.30;100.00;99713.77;1736118;82;20108;-62
2021/11/23 02:59:56;;;;;;;;;;;;;;;-3.19;100.00;99715.27;1735909;82;20079;-60
2021/11/23 03:02:23;;;;;;;;;;;;;;;-3.11;100.00;99706.58;1735695;82;20107;-60
2021/11/23 03:04:52;;;;;;;;;;;;;;;-3.02;100.00;99707.74;1759839;81;20557;-60
2021/11/23 03:07:19;;;;;;;;;;;;;;;-2.94;100.00;99704.80;1771999;80;20081;-60
2021/11/23 03:09:46;;;;;;;;;;;;;;;-2.89;100.00;99705.13;1803415;79;20134;-60
2021/11/23 03:12:19;;;;;;;;;;;;;;;-2.87;100.00;99709.73;1802915;79;20451;-60
2021/11/23 03:14:46;;;;;;;;;;;;;;;-2.86;100.00;99699.08;1803031;79;20114;-61
2021/11/23 03:17:13;;;;;;;;;;;;;;;-2.84;100.00;99694.98;1784641;79;21122;-61
2021/11/23 03:19:41;;;;;;;;;;;;;;;-2.82;100.00;99705.66;1776334;80;20088;-61
2021/11/23 03:22:08;;;;;;;;;;;;;;;-2.81;100.00;99697.28;1764169;81;20086;-61
2021/11/23 03:24:36;;;;;;;;;;;;;;;-2.75;100.00;99697.11;1761807;81;20086;-60
2021/11/23 03:27:03;;;;;;;;;;;;;;;-2.74;100.00;99701.36;1761232;81;20106;-61
2021/11/23 03:29:30;;;;;;;;;;;;;;;-2.73;100.00;99700.39;1773905;80;21137;-60
2021/11/23 03:31:57;;;;;;;;;;;;;;;-2.72;100.00;99694.98;1785584;79;20095;-61
2021/11/23 03:34:24;;;;;;;;;;;;;;;-2.68;100.00;99687.58;1782377;79;20453;-60
2021/11/23 03:36:51;;;;;;;;;;;;;;;-2.66;100.00;99682.98;1782883;80;20130;-61
2021/11/23 03:39:18;;;;;;;;;;;;;;;-2.67;100.00;99679.55;1783001;80;20160;-60
2021/11/23 03:41:45;;;;;;;;;;;;;;;-2.66;100.00;99671.16;1783221;80;21099;-60
2021/11/23 03:44:12;;;;;;;;;;;;;;;-2.67;100.00;99673.45;1784265;80;20131;-60
2021/11/23 03:46:38;;;;;;;;;;;;;;;-2.69;100.00;99676.26;1784778;80;20119;-61
2021/11/23 03:49:05;;;;;;;;;;;;;;;-2.68;100.00;99675.76;1782542;80;20127;-61
2021/11/23 03:51:32;;;;;;;;;;;;;;;-2.68;100.00;99674.44;1782873;80;20103;-60
2021/11/23 03:53:59;;;;;;;;;;;;;;;-2.70;100.00;99678.54;1783170;80;21118;-61
2021/11/23 03:56:26;;;;;;;;;;;;;;;-2.70;100.00;99671.97;1784795;80;21503;-60
2021/11/23 03:58:52;;;;;;;;;;;;;;;-2.68;100.00;99678.39;1782401;80;20092;-62
2021/11/23 04:01:19;;;;;;;;;;;;;;;-2.66;100.00;99672.48;1781864;80;20111;-60
2021/11/23 04:03:45;;;;;;;;;;;;;;;-2.67;100.00;99670.81;1784196;80;20112;-61
2021/11/23 04:06:13;;;;;;;;;;;;;;;-2.70;100.00;99676.41;1779719;80;21029;-61
2021/11/23 04:08:42;;;;;;;;;;;;;;;-2.74;100.00;99679.03;1781460;80;20112;-61
2021/11/23 04:11:09;;;;;;;;;;;;;;;-2.80;100.00;99683.95;1781604;80;20092;-61
2021/11/23 04:13:36;;;;;;;;;;;;;;;-2.82;100.00;99688.58;1783469;80;20144;-60
2021/11/23 04:16:04;;;;;;;;;;;;;;;-2.86;100.00;99685.12;1756201;80;20125;-60
2021/11/23 04:18:32;;;;;;;;;;;;;;;-2.97;100.00;99690.69;1804534;79;20424;-60
2021/11/23 04:21:00;;;;;;;;;;;;;;;-3.08;100.00;99689.21;1770687;80;20064;-61
2021/11/23 04:23:26;;;;;;;;;;;;;;;-3.17;100.00;99688.36;1759275;81;20111;-61
2021/11/23 04:25:53;;;;;;;;;;;;;;;-3.26;100.00;99688.01;1794259;79;20092;-61
2021/11/23 04:28:20;;;;;;;;;;;;;;;-3.30;100.00;99685.40;1761563;81;20106;-61
2021/11/23 04:30:46;;;;;;;;;;;;;;;-3.31;100.00;99682.42;1761428;81;21126;-61
2021/11/23 04:33:14;;;;;;;;;;;;;;;-3.34;100.00;99689.31;1774036;80;20108;-61
2021/11/23 04:35:41;;;;;;;;;;;;;;;-3.37;100.00;99689.14;1787811;79;20071;-60
2021/11/23 04:38:08;;;;;;;;;;;;;;;-3.35;100.00;99688.50;1800929;79;20445;-60
2021/11/23 04:40:36;;;;;;;;;;;;;;;-3.34;100.00;99686.20;1800867;79;20126;-61
2021/11/23 04:43:05;;;;;;;;;;;;;;;-3.29;100.00;99690.47;1799204;79;21867;-60
2021/11/23 04:45:32;;;;;;;;;;;;;;;-3.24;100.00;99691.30;1798680;80;20118;-61
2021/11/23 04:48:00;;;;;;;;;;;;;;;-3.21;100.00;99687.53;1798681;80;20099;-61
2021/11/23 04:50:27;;;;;;;;;;;;;;;-3.16;100.00;99693.97;1798669;80;20497;-61
2021/11/23 04:52:55;;;;;;;;;;;;;;;-3.10;100.00;99688.55;1797983;79;20472;-62
2021/11/23 04:55:21;;;;;;;;;;;;;;;-3.06;100.00;99684.62;1798309;79;21061;-61
2021/11/23 04:57:48;;;;;;;;;;;;;;;-3.03;100.00;99694.30;1798573;79;20448;-61
2021/11/23 05:00:16;;;;;;;;;;;;;;;-3.00;100.00;99691.84;1798106;80;20190;-61
2021/11/23 05:02:44;;;;;;;;;;;;;;;-2.98;100.00;99685.12;1798767;80;20584;-61
2021/11/23 05:05:11;;;;;;;;;;;;;;;-2.97;100.00;99690.19;1800162;79;20162;-60
2021/11/23 05:07:38;;;;;;;;;;;;;;;-2.95;100.00;99685.60;1801396;79;21182;-61
2021/11/23 05:10:06;;;;;;;;;;;;;;;-2.93;100.00;99690.20;1801230;79;20440;-61
2021/11/23 05:12:33;;;;;;;;;;;;;;;-2.91;100.00;99688.23;1801292;79;20103;-61
2021/11/23 05:14:59;;;;;;;;;;;;;;;-2.91;100.00;99695.30;1801629;79;20075;-61
2021/11/23 05:17:26;;;;;;;;;;;;;;;-2.96;100.00;99697.11;1772817;79;20480;-61
2021/11/23 05:19:53;;;;;;;;;;;;;;;-3.02;100.00;99694.61;1801593;79;21068;-61
2021/11/23 05:22:20;;;;;;;;;;;;;;;-3.10;100.00;99699.87;1801102;79;20075;-61
2021/11/23 05:24:47;;;;;;;;;;;;;;;-3.18;100.00;99705.11;1801535;79;20079;-61
2021/11/23 05:27:14;;;;;;;;;;;;;;;-3.27;100.00;99709.51;1801554;79;20098;-61
2021/11/23 05:29:41;;;;;;;;;;;;;;;-3.32;100.00;99715.73;1769406;80;20089;-61
2021/11/23 05:32:08;;;;;;;;;;;;;;;-3.33;100.00;99725.91;1775730;80;21162;-62
2021/11/23 05:34:35;;;;;;;;;;;;;;;-3.31;100.00;99727.05;1781647;80;20128;-60
2021/11/23 05:37:03;;;;;;;;;;;;;;;-3.29;100.00;99721.97;1793001;80;20083;-63
2021/11/23 05:39:30;;;;;;;;;;;;;;;-3.23;100.00;99717.91;1781929;80;20084;-62
2021/11/23 05:41:57;;;;;;;;;;;;;;;-3.18;100.00;99731.86;1795312;80;20087;-62
2021/11/23 05:44:23;;;;;;;;;;;;;;;-3.17;100.00;99736.13;1771875;80;21173;-62
2021/11/23 05:46:51;;;;;;;;;;;;;;;-3.19;100.00;99734.95;1785541;80;20149;-63
2021/11/23 05:49:17;;;;;;;;;;;;;;;-3.20;100.00;99745.14;1789962;80;20079;-63
2021/11/23 05:51:46;;;;;;;;;;;;;;;-3.22;100.00;99743.16;1789697;80;20123;-61
2021/11/23 05:54:13;;;;;;;;;;;;;;;-3.22;100.00;99741.85;1791564;79;20408;-61
2021/11/23 05:56:41;;;;;;;;;;;;;;;-3.19;100.00;99757.77;1745534;80;20521;-61
2021/11/23 05:59:10;;;;;;;;;;;;;;;-3.18;100.00;99747.63;1745373;81;20140;-60
2021/11/23 06:01:36;;;;;;;;;;;;;;;-3.16;100.00;99736.44;1775518;79;20102;-60
2021/11/23 06:04:03;;;;;;;;;;;;;;;-3.13;100.00;99740.08;1797067;79;20106;-60
2021/11/23 06:06:32;;;;;;;;;;;;;;;-3.13;100.00;99740.08;1785738;79;20120;-60
2021/11/23 06:08:58;;;;;;;;;;;;;;;-3.11;100.00;99740.72;1770990;80;21130;-60
2021/11/23 06:11:43;;;;;;;;;;;;;;;-3.07;100.00;99735.48;1739477;82;20146;-60
2021/11/23 06:14:11;;;;;;;;;;;;;;;-3.03;100.00;99742.06;1774429;79;20152;-60
2021/11/23 06:16:38;;;;;;;;;;;;;;;-2.96;100.00;99738.28;1755872;81;20131;-60
2021/11/23 06:19:05;;;;;;;;;;;;;;;-2.89;100.00;99741.91;1758743;80;20586;-61
2021/11/23 06:21:33;;;;;;;;;;;;;;;-2.85;100.00;99749.80;1768843;80;20489;-60
2021/11/23 06:23:59;;;;;;;;;;;;;;;-2.78;100.00;99754.73;1777087;80;20142;-61
2021/11/23 06:26:26;;;;;;;;;;;;;;;-2.53;100.00;99746.88;1766181;79;20454;-61
2021/11/23 06:28:53;;;;;;;;;;;;;;;-2.53;100.00;99748.19;1773286;80;20107;-62
2021/11/23 06:31:19;;;;;;;;;;;;;;;-2.49;100.00;99748.20;1801227;79;20406;-60
2021/11/23 06:33:46;;;;;;;;;;;;;;;-2.54;100.00;99743.43;1785059;79;21103;-62
2021/11/23 06:36:12;;;;;;;;;;;;;;;-2.62;100.00;99742.13;1784256;80;20116;-60
2021/11/23 06:38:39;;;;;;;;;;;;;;;-2.69;100.00;99737.19;1784855;80;20116;-62
2021/11/23 06:41:06;;;;;;;;;;;;;;;-2.70;100.00;99736.84;1765918;81;20125;-60
2021/11/23 06:43:33;;;;;;;;;;;;;;;-2.67;100.00;99744.39;1756826;81;20143;-57
2021/11/23 06:45:59;;;;;;;;;;;;;;;-2.50;100.00;99739.50;1773419;80;21126;-58
2021/11/23 06:48:26;;;;;;;;;;;;;;;-1.98;100.00;99740.41;1756786;81;20429;-59
2021/11/23 06:50:53;;;;;;;;;;;;;;;-1.55;100.00;99740.92;1758558;80;20129;-58
2021/11/23 06:53:19;;;;;;;;;;;;;;;-1.12;100.00;99741.39;1771883;80;20433;-59
2021/11/23 06:55:46;;;;;;;;;;;;;;;-0.75;100.00;99742.48;1764043;80;20112;-58
2021/11/23 06:58:13;;;;;;;;;;;;;;;-0.54;100.00;99741.84;1756856;81;21116;-60
2021/11/23 07:00:41;;;;;;;;;;;;;;;-0.31;100.00;99741.80;1756122;81;20074;-60
2021/11/23 07:03:08;;;;;;;;;;;;;;;0.20;100.00;99743.79;1756588;81;20167;-59
2021/11/23 07:05:35;;;;;;;;;;;;;;;0.45;100.00;99752.25;1746634;81;20134;-60
2021/11/23 07:08:03;;;;;;;;;;;;;;;0.87;100.00;99757.34;1761337;81;20094;-60
2021/11/23 07:10:32;;;;;;;;;;;;;;;1.27;100.00;99764.37;1756214;81;21775;-60
2021/11/23 07:12:59;;;;;;;;;;;;;;;1.54;100.00;99764.63;1747284;81;20400;-59
2021/11/23 07:15:27;;;;;;;;;;;;;;;1.59;100.00;99763.05;1768499;81;20087;-59
2021/11/23 07:17:53;;;;;;;;;;;;;;;0.99;100.00;99755.04;1786505;80;20120;-59
2021/11/23 07:20:20;;;;;;;;;;;;;;;0.23;100.00;99751.84;1802739;79;20158;-59
2021/11/23 07:22:46;;;;;;;;;;;;;;;-0.27;100.00;99752.80;1802468;79;21746;-60
2021/11/23 07:25:14;;;;;;;;;;;;;;;-0.38;100.00;99744.02;1802765;79;20145;-59
2021/11/23 07:27:42;;;;;;;;;;;;;;;0.10;100.00;99738.78;1802419;79;20106;-59
2021/11/23 07:30:11;;;;;;;;;;;;;;;0.52;100.00;99748.38;1801616;79;20166;-61
2021/11/23 07:32:39;;;;;;;;;;;;;;;0.88;100.00;99744.94;1784484;80;20156;-59
2021/11/23 07:35:07;;;;;;;;;;;;;;;1.04;100.00;99752.14;1747058;82;21141;-59
2021/11/23 07:37:51;;;;;;;;;;;;;;;;;;;;;
2021/11/23 07:40:12;;;;;;;;;;;;;;;1.34;100.00;99750.71;1771322;80;20442;-61
2021/11/23 07:42:40;;;;;;;;;;;;;;;1.15;100.00;99755.30;1770406;81;20112;-60
2021/11/23 07:45:08;;;;;;;;;;;;;;;1.00;100.00;99759.30;1771285;81;20402;-59
2021/11/23 07:47:35;;;;;;;;;;;;;;;1.22;100.00;99765.44;1771034;81;21130;-59
2021/11/23 07:50:03;;;;;;;;;;;;;;;1.80;100.00;99772.80;1770940;81;20171;-59
2021/11/23 07:52:30;;;;;;;;;;;;;;;2.13;100.00;99771.74;1770486;80;20454;-60
2021/11/23 07:54:56;;;;;;;;;;;;;;;2.10;100.00;99768.64;1797406;79;20416;-60
2021/11/23 07:57:23;;;;;;;;;;;;;;;1.85;100.00;99768.27;1809398;78;20267;-60
2021/11/23 07:59:50;;;;;;;;;;;;;;;1.54;100.00;99775.21;1781367;80;21042;-62
2021/11/23 08:02:18;;;;;;;;;;;;;;;1.27;100.00;99769.18;1787336;79;20135;-59
2021/11/23 08:04:45;;;;;;;;;;;;;;;1.13;100.00;99779.77;1795911;78;20142;-59
2021/11/23 08:07:12;;;;;;;;;;;;;;;1.09;100.00;99781.17;1796386;78;20250;-60
2021/11/23 08:09:38;;;;;;;;;;;;;;;1.03;100.00;99780.92;1792128;79;20083;-58
2021/11/23 08:12:06;;;;;;;;;;;;;;;0.99;100.00;99778.83;1780193;79;21179;-59
2021/11/23 08:14:33;;;;;;;;;;;;;;;0.88;100.00;99780.10;1775416;80;20151;-58
2021/11/23 08:17:01;;;;;;;;;;;;;;;0.78;100.00;99778.26;1776554;80;20127;-60
2021/11/23 08:19:30;;;;;;;;;;;;;;;0.74;100.00;99777.82;1776105;80;20100;-59
2021/11/23 08:21:57;;;;;;;;;;;;;;;1.08;100.00;99777.72;1775976;80;20145;-60
2021/11/23 08:24:24;;;;;;;;;;;;;;;1.84;100.00;99773.26;1781300;80;21201;-60
2021/11/23 08:26:50;;;;;;;;;;;;;;;2.63;100.00;99775.59;1781418;80;20386;-61
2021/11/23 08:29:17;;;;;;;;;;;;;;;2.71;100.00;99774.60;1781556;80;20557;-59
2021/11/23 08:31:44;;;;;;;;;;;;;;;2.72;100.00;99766.95;1781463;80;20406;-59
2021/11/23 08:34:12;;;;;;;;;;;;;;;2.27;100.00;99765.19;1781504;80;20092;-59
2021/11/23 08:36:38;;;;;;;;;;;;;;;1.85;100.00;99759.00;1781622;80;21195;-59
2021/11/23 08:39:06;;;;;;;;;;;;;;;1.66;100.00;99760.47;1781349;80;20093;-59
2021/11/23 08:41:32;;;;;;;;;;;;;;;2.11;100.00;99760.52;1772332;80;20089;-59
2021/11/23 08:43:59;;;;;;;;;;;;;;;2.95;100.00;99763.48;1756325;80;20118;-59
2021/11/23 08:46:27;;;;;;;;;;;;;;;3.09;100.00;99751.09;1794331;80;20131;-58
2021/11/23 08:48:53;;;;;;;;;;;;;;;3.46;100.00;99748.92;1783498;80;21099;-59
2021/11/23 08:51:24;;;;;;;;;;;;;;;3.95;100.00;99749.03;1799225;79;20091;-60
2021/11/23 08:53:49;;;;;;;;;;;;;;;4.27;100.00;99741.22;1810494;79;20110;-60
2021/11/23 08:56:15;;;;;;;;;;;;;;;4.35;100.00;99740.17;1813616;79;20133;-61
2021/11/23 08:58:47;;;;;;;;;;;;;;;4.36;100.00;99734.67;1772567;79;20149;-59
2021/11/23 09:01:12;;;;;;;;;;;;;;;4.49;100.00;99733.28;1770105;80;21201;-61
2021/11/23 09:03:41;;;;;;;;;;;;;;;4.38;100.00;99735.25;1783830;80;20417;-61
2021/11/23 09:06:08;;;;;;;;;;;;;;;4.37;100.00;99730.16;1782648;79;20480;-61
2021/11/23 09:08:39;;;;;;;;;;;;;;;4.18;100.00;99735.81;1778703;79;20093;-61
2021/11/23 09:11:04;;;;;;;;;;;;;;;4.24;100.00;99727.03;1766332;79;20141;-61
2021/11/23 09:13:32;;;;;;;;;;;;;;;4.27;100.00;99729.27;1759597;79;20066;-61
2021/11/23 09:15:59;;;;;;;;;;;;;;;4.43;100.00;99731.45;1802351;79;20106;-60
2021/11/23 09:18:26;;;;;;;;;;;;;;;4.05;100.00;99717.55;1802573;79;20176;-61
2021/11/23 09:20:52;;;;;;;;;;;;;;;4.04;100.00;99730.54;1802827;79;20129;-61
2021/11/23 09:23:19;;;;;;;;;;;;;;;3.81;100.00;99716.34;1802880;79;20170;-60
2021/11/23 09:25:46;;;;;;;;;;;;;;;3.79;100.00;99722.38;1802832;79;21116;-61
2021/11/23 09:28:12;;;;;;;;;;;;;;;3.93;100.00;99714.41;1802538;79;20075;-59
2021/11/23 09:30:39;;;;;;;;;;;;;;;3.61;100.00;99726.98;1802806;79;20126;-61
2021/11/23 09:33:07;;;;;;;;;;;;;;;3.41;100.00;99715.03;1774420;79;20502;-63
2021/11/23 09:35:33;;;;;;;;;;;;;;;3.55;100.00;99713.70;1766133;79;20422;-60
2021/11/23 09:38:00;;;;;;;;;;;;;;;3.72;100.00;99706.95;1783789;79;21511;-59
2021/11/23 09:40:29;;;;;;;;;;;;;;;3.90;100.00;99698.38;1771232;80;20097;-60
2021/11/23 09:42:56;;;;;;;;;;;;;;;3.60;100.00;99696.16;1770268;78;20101;-61
2021/11/23 09:45:23;;;;;;;;;;;;;;;3.67;100.00;99704.61;1773885;79;20112;-61
2021/11/23 09:47:50;;;;;;;;;;;;;;;3.60;100.00;99704.61;1756137;78;20157;-61
2021/11/23 09:50:16;;;;;;;;;;;;;;;3.62;100.00;99699.40;1759030;78;21116;-60
2021/11/23 09:52:44;;;;;;;;;;;;;;;3.69;100.00;99702.06;1798325;78;20408;-63
2021/11/23 09:55:11;;;;;;;;;;;;;;;3.96;100.00;99703.36;1815022;79;20110;-64
2021/11/23 09:57:38;;;;;;;;;;;;;;;4.03;100.00;99704.98;1809055;79;20505;-65
2021/11/23 10:00:24;;;;;;;;;;;;;;;3.99;100.00;99694.48;1792817;79;20116;-63
2021/11/23 10:02:51;;;;;;;;;;;;;;;3.91;100.00;99692.55;1756761;80;21726;-60
2021/11/23 10:05:17;;;;;;;;;;;;;;;4.28;100.00;99696.34;1778308;80;20171;-59
2021/11/23 10:07:44;;;;;;;;;;;;;;;4.79;97.67;99692.06;1785201;80;20131;-60
2021/11/23 10:10:20;;;;;;;;;;;;;;;4.91;95.85;99676.54;1757001;80;20163;-61
2021/11/23 10:12:58;;;;;;;;;;;;;;;4.49;94.47;99672.15;1745980;81;20387;-61
2021/11/23 10:15:29;;;;;;;;;;;;;;;4.34;96.38;99675.59;1765641;81;20125;-61
2021/11/23 10:18:11;;;;;;;;;;;;;;;4.04;98.51;99674.76;1761801;80;20085;-59
2021/11/23 10:20:46;;;;;;;;;;;;;;;3.83;98.87;99661.20;1757891;80;20108;-60
2021/11/23 10:23:15;;;;;;;;;;;;;;;3.56;100.00;99668.38;1762668;81;20188;-60
2021/11/23 10:25:43;;;;;;;;;;;;;;;3.46;100.00;99662.67;1763854;80;20116;-60
2021/11/23 10:28:09;;;;;;;;;;;;;;;3.35;100.00;99659.30;1760182;81;21129;-59
2021/11/23 10:30:44;;;;;;;;;;;;;;;3.17;100.00;99658.06;1763885;81;20110;-59
2021/11/23 10:33:12;;;;;;;;;;;;;;;3.13;100.00;99659.48;1752213;81;20166;-60
2021/11/23 10:35:47;;;;;;;;;;;;;;;3.13;100.00;99648.88;1731084;82;20113;-60
2021/11/23 10:38:16;;;;;;;;;;;;;;;3.09;100.00;99646.34;1792850;80;20120;-60
2021/11/23 10:40:44;;;;;;;;;;;;;;;2.98;100.00;99640.30;1782565;79;21140;-59
2021/11/23 10:43:12;;;;;;;;;;;;;;;2.94;100.00;99629.29;1819762;79;20117;-60
2021/11/23 10:45:50;;;;;;;;;;;;;;;2.86;100.00;99629.45;1817721;79;20094;-60
2021/11/23 10:48:18;;;;;;;;;;;;;;;2.84;100.00;99635.98;1769439;79;20467;-59
2021/11/23 10:51:00;;;;;;;;;;;;;;;2.77;100.00;99635.47;1780705;79;20107;-60
2021/11/23 10:53:26;;;;;;;;;;;;;;;2.76;100.00;99636.98;1817783;79;21038;-60
2021/11/23 10:55:53;;;;;;;;;;;;;;;2.67;100.00;99623.12;1818587;78;20415;-61
2021/11/23 10:58:20;;;;;;;;;;;;;;;2.64;100.00;99630.13;1770188;81;20101;-60
2021/11/23 11:00:48;;;;;;;;;;;;;;;2.65;100.00;99629.13;1777654;80;20505;-60
2021/11/23 11:03:21;;;;;;;;;;;;;;;2.67;100.00;99624.45;1772542;80;20264;-60
2021/11/23 11:05:47;;;;;;;;;;;;;;;2.67;100.00;99626.26;1780409;80;21109;-60
2021/11/23 11:08:15;;;;;;;;;;;;;;;2.68;100.00;99617.31;1789036;79;20107;-61
2021/11/23 11:10:42;;;;;;;;;;;;;;;2.61;100.00;99615.15;1783455;80;20460;-60
2021/11/23 11:13:10;;;;;;;;;;;;;;;2.59;100.00;99617.98;1783187;79;20123;-59
2021/11/23 11:15:43;;;;;;;;;;;;;;;2.54;100.00;99621.75;1785220;79;20096;-60
2021/11/23 11:18:13;;;;;;;;;;;;;;;2.54;100.00;99610.63;1785608;80;21097;-60
2021/11/23 11:20:45;;;;;;;;;;;;;;;2.53;100.00;99601.58;1786220;80;20151;-60
2021/11/23 11:23:15;;;;;;;;;;;;;;;2.48;100.00;99601.36;1755944;79;20207;-58
2021/11/23 11:26:14;;;;;;;;;;;;;;;2.46;100.00;99600.23;1791303;79;20262;-58
2021/11/23 11:28:43;;;;;;;;;;;;;;;2.47;100.00;99598.39;1785032;79;20452;-60
2021/11/23 11:31:27;;;;;;;;;;;;;;;2.49;100.00;99588.41;1787158;80;21887;-60
2021/11/23 11:34:18;;;;;;;;;;;;;;;2.43;100.00;99592.69;1783481;80;20115;-61
2021/11/23 11:36:46;;;;;;;;;;;;;;;2.42;100.00;99600.83;1791049;79;20237;-59
2021/11/23 11:39:40;;;;;;;;;;;;;;;2.29;100.00;99601.09;1743963;80;20119;-59
2021/11/23 11:42:08;;;;;;;;;;;;;;;2.30;100.00;99593.95;1780626;80;20147;-60
2021/11/23 11:44:41;;;;;;;;;;;;;;;2.28;100.00;99598.14;1784171;79;21059;-59
2021/11/23 11:47:11;;;;;;;;;;;;;;;2.26;100.00;99594.88;1754710;79;20419;-59
2021/11/23 11:49:52;;;;;;;;;;;;;;;2.25;100.00;99585.27;1759250;81;20386;-59
2021/11/23 11:52:22;;;;;;;;;;;;;;;2.28;100.00;99594.66;1760760;81;20162;-60
2021/11/23 11:55:15;;;;;;;;;;;;;;;2.29;100.00;99589.17;1760378;81;20115;-59
2021/11/23 11:57:43;;;;;;;;;;;;;;;2.31;100.00;99596.41;1760992;81;21191;-60
2021/11/23 12:00:36;;;;;;;;;;;;;;;2.31;100.00;99590.30;1760230;81;20412;-60
2021/11/23 12:03:13;;;;;;;;;;;;;;;2.31;100.00;99591.11;1759537;81;20094;-61
2021/11/23 12:06:04;;;;;;;;;;;;;;;2.33;100.00;99591.73;1757532;80;20126;-61
2021/11/23 12:08:35;;;;;;;;;;;;;;;2.31;100.00;99596.41;1761285;81;20134;-62
2021/11/23 12:11:06;;;;;;;;;;;;;;;2.25;100.00;99595.87;1761637;81;21144;-61
2021/11/23 12:13:52;;;;;;;;;;;;;;;2.22;100.00;99592.81;1761742;81;20106;-62
2021/11/23 12:16:32;;;;;;;;;;;;;;;2.23;100.00;99587.33;1761799;81;20439;-61
2021/11/23 12:19:25;;;;;;;;;;;;;;;2.25;100.00;99591.09;1755409;80;20092;-62
2021/11/23 12:21:54;;;;;;;;;;;;;;;2.11;100.00;99587.59;1785851;80;20414;-61
2021/11/23 12:24:25;;;;;;;;;;;;;;;2.01;100.00;99596.37;1734736;82;21782;-60
2021/11/23 12:26:54;;;;;;;;;;;;;;;1.96;100.00;99597.48;1754950;81;20097;-61
2021/11/23 12:29:26;;;;;;;;;;;;;;;1.83;100.00;99589.78;1772363;80;20430;-61
2021/11/23 12:31:53;;;;;;;;;;;;;;;1.84;100.00;99596.73;1785977;80;20369;-61
2021/11/23 12:34:20;;;;;;;;;;;;;;;1.75;100.00;99593.11;1751819;82;20079;-60
2021/11/23 12:36:52;;;;;;;;;;;;;;;1.75;100.00;99595.25;1764943;80;21116;-61
2021/11/23 12:39:21;;;;;;;;;;;;;;;1.72;100.00;99594.33;1723813;82;20432;-60
2021/11/23 12:41:49;;;;;;;;;;;;;;;1.66;100.00;99595.09;1748142;80;20114;-61
2021/11/23 12:44:23;;;;;;;;;;;;;;;1.60;100.00;99587.43;1741164;79;20507;-60
2021/11/23 12:46:59;;;;;;;;;;;;;;;1.59;100.00;99583.64;1773601;79;20118;-61
2021/11/23 12:49:27;;;;;;;;;;;;;;;1.57;100.00;99579.89;1777581;80;21161;-61